sensor_id;sensor_type;location;lat;lon;timestamp;pressure;altitude;pressure_sealevel;temperature;humidity
77893;BME280;67087;50.094;14.338;2023-04-24T00:00:59;96915.40;;;25.47;33.69
77893;BME280;67087;50.094;14.338;2023-04-24T00:03:24;96914.86;;;25.66;33.75
77893;BME280;67087;50.094;14.338;2023-04-24T00:05:49;96916.93;;;25.50;33.59
77893;BME280;67087;50.094;14.338;2023-04-24T00:08:14;96921.12;;;25.69;33.67
77893;BME280;67087;50.094;14.338;2023-04-24T00:10:40;96915.68;;;25.67;33.69
77893;BME280;67087;50.094;14.338;2023-04-24T00:13:05;96915.76;;;25.55;33.60
77893;BME280;67087;50.094;14.338;2023-04-24T00:15:30;96913.48;;;25.76;33.63
77893;BME280;67087;50.094;14.338;2023-04-24T00:17:55;96912.16;;;25.69;33.72
77893;BME280;67087;50.094;14.338;2023-04-24T00:20:20;96909.54;;;25.67;33.71
77893;BME280;67087;50.094;14.338;2023-04-24T00:22:45;96902.60;;;25.42;33.73
77893;BME280;67087;50.094;14.338;2023-04-24T00:25:10;96904.05;;;25.72;33.64
77893;BME280;67087;50.094;14.338;2023-04-24T00:27:35;96900.08;;;25.59;33.85
77893;BME280;67087;50.094;14.338;2023-04-24T00:30:01;96896.83;;;25.45;33.76
77893;BME280;67087;50.094;14.338;2023-04-24T00:32:26;96891.39;;;25.72;33.71
77893;BME280;67087;50.094;14.338;2023-04-24T00:34:51;96887.92;;;25.44;33.76
77893;BME280;67087;50.094;14.338;2023-04-24T00:37:16;96884.86;;;25.64;33.77
77893;BME280;67087;50.094;14.338;2023-04-24T00:39:42;96884.89;;;25.59;33.86
77893;BME280;67087;50.094;14.338;2023-04-24T00:42:06;96885.26;;;25.79;33.91
77893;BME280;67087;50.094;14.338;2023-04-24T00:44:33;96883.38;;;25.45;34.08
77893;BME280;67087;50.094;14.338;2023-04-24T00:46:57;96876.69;;;25.59;33.86
77893;BME280;67087;50.094;14.338;2023-04-24T00:49:22;96874.30;;;25.47;33.72
77893;BME280;67087;50.094;14.338;2023-04-24T00:51:47;96870.66;;;25.35;33.86
77893;BME280;67087;50.094;14.338;2023-04-24T00:54:12;96866.28;;;25.58;33.84
77893;BME280;67087;50.094;14.338;2023-04-24T00:56:37;96866.20;;;25.59;33.84
77893;BME280;67087;50.094;14.338;2023-04-24T00:59:03;96867.01;;;25.65;33.73
77893;BME280;67087;50.094;14.338;2023-04-24T01:01:28;96864.73;;;25.35;33.81
77893;BME280;67087;50.094;14.338;2023-04-24T01:03:53;96864.53;;;25.37;33.81
77893;BME280;67087;50.094;14.338;2023-04-24T01:06:19;96867.38;;;25.65;33.82
77893;BME280;67087;50.094;14.338;2023-04-24T01:08:44;96865.38;;;25.43;33.84
77893;BME280;67087;50.094;14.338;2023-04-24T01:11:08;96861.63;;;25.66;33.85
77893;BME280;67087;50.094;14.338;2023-04-24T01:13:34;96855.38;;;25.65;33.86
77893;BME280;67087;50.094;14.338;2023-04-24T01:15:59;96846.87;;;25.39;33.86
77893;BME280;67087;50.094;14.338;2023-04-24T01:18:24;96847.18;;;25.57;33.99
77893;BME280;67087;50.094;14.338;2023-04-24T01:20:51;96843.58;;;25.28;34.09
77893;BME280;67087;50.094;14.338;2023-04-24T01:23:14;96842.80;;;25.57;34.02
77893;BME280;67087;50.094;14.338;2023-04-24T01:25:39;96842.19;;;25.53;34.02
77893;BME280;67087;50.094;14.338;2023-04-24T01:28:04;96843.24;;;25.37;33.92
77893;BME280;67087;50.094;14.338;2023-04-24T01:30:30;96846.42;;;25.42;33.87
77893;BME280;67087;50.094;14.338;2023-04-24T01:32:55;96847.91;;;25.34;33.95
77893;BME280;67087;50.094;14.338;2023-04-24T01:35:20;96849.17;;;25.56;33.98
77893;BME280;67087;50.094;14.338;2023-04-24T01:37:45;96853.67;;;25.05;34.07
77893;BME280;67087;50.094;14.338;2023-04-24T01:40:10;96853.30;;;25.61;33.92
77893;BME280;67087;50.094;14.338;2023-04-24T01:42:35;96850.41;;;25.64;33.90
77893;BME280;67087;50.094;14.338;2023-04-24T01:45:02;96851.47;;;25.61;33.96
77893;BME280;67087;50.094;14.338;2023-04-24T01:47:25;96854.35;;;25.48;34.11
77893;BME280;67087;50.094;14.338;2023-04-24T01:49:51;96857.20;;;25.54;34.02
77893;BME280;67087;50.094;14.338;2023-04-24T01:52:16;96858.14;;;25.60;33.91
77893;BME280;67087;50.094;14.338;2023-04-24T01:54:41;96857.56;;;25.71;33.80
77893;BME280;67087;50.094;14.338;2023-04-24T01:57:06;96848.52;;;25.58;33.94
77893;BME280;67087;50.094;14.338;2023-04-24T01:59:32;96849.35;;;25.57;34.01
77893;BME280;67087;50.094;14.338;2023-04-24T02:01:56;96845.37;;;25.58;33.95
77893;BME280;67087;50.094;14.338;2023-04-24T02:04:21;96838.60;;;25.57;34.01
77893;BME280;67087;50.094;14.338;2023-04-24T02:06:46;96840.71;;;25.35;34.00
77893;BME280;67087;50.094;14.338;2023-04-24T02:09:12;96841.14;;;25.61;33.95
77893;BME280;67087;50.094;14.338;2023-04-24T02:11:37;96834.91;;;25.61;33.88
77893;BME280;67087;50.094;14.338;2023-04-24T02:14:02;96838.44;;;25.35;33.91
77893;BME280;67087;50.094;14.338;2023-04-24T02:16:28;96840.04;;;25.65;33.86
77893;BME280;67087;50.094;14.338;2023-04-24T02:18:52;96839.47;;;25.33;33.98
77893;BME280;67087;50.094;14.338;2023-04-24T02:21:17;96835.34;;;25.67;33.80
77893;BME280;67087;50.094;14.338;2023-04-24T02:23:43;96832.51;;;25.38;33.86
77893;BME280;67087;50.094;14.338;2023-04-24T02:26:08;96831.53;;;25.58;33.89
77893;BME280;67087;50.094;14.338;2023-04-24T02:28:33;96830.80;;;25.56;33.92
77893;BME280;67087;50.094;14.338;2023-04-24T02:30:58;96833.08;;;25.34;33.91
77893;BME280;67087;50.094;14.338;2023-04-24T02:33:23;96832.76;;;25.54;33.99
77893;BME280;67087;50.094;14.338;2023-04-24T02:35:48;96836.15;;;25.60;33.96
77893;BME280;67087;50.094;14.338;2023-04-24T02:38:13;96839.75;;;25.28;34.04
77893;BME280;67087;50.094;14.338;2023-04-24T02:40:38;96837.35;;;25.59;33.90
77893;BME280;67087;50.094;14.338;2023-04-24T02:43:04;96838.34;;;25.65;33.80
77893;BME280;67087;50.094;14.338;2023-04-24T02:45:29;96842.09;;;25.61;33.83
77893;BME280;67087;50.094;14.338;2023-04-24T02:47:54;96843.50;;;25.54;33.94
77893;BME280;67087;50.094;14.338;2023-04-24T02:50:19;96840.85;;;25.61;33.86
77893;BME280;67087;50.094;14.338;2023-04-24T02:52:44;96840.95;;;25.58;33.88
77893;BME280;67087;50.094;14.338;2023-04-24T02:55:09;96841.81;;;25.52;33.91
77893;BME280;67087;50.094;14.338;2023-04-24T02:57:34;96839.54;;;25.55;33.88
77893;BME280;67087;50.094;14.338;2023-04-24T02:59:59;96842.16;;;25.55;33.92
77893;BME280;67087;50.094;14.338;2023-04-24T03:02:25;96840.34;;;25.55;33.89
77893;BME280;67087;50.094;14.338;2023-04-24T03:04:50;96842.18;;;25.36;33.82
77893;BME280;67087;50.094;14.338;2023-04-24T03:07:15;96840.70;;;25.63;33.82
77893;BME280;67087;50.094;14.338;2023-04-24T03:09:41;96840.14;;;25.53;33.92
77893;BME280;67087;50.094;14.338;2023-04-24T03:12:05;96838.83;;;25.56;33.91
77893;BME280;67087;50.094;14.338;2023-04-24T03:14:30;96836.77;;;25.55;33.94
77893;BME280;67087;50.094;14.338;2023-04-24T03:16:56;96833.62;;;25.52;33.97
77893;BME280;67087;50.094;14.338;2023-04-24T03:19:21;96834.62;;;25.52;33.99
77893;BME280;67087;50.094;14.338;2023-04-24T03:21:46;96831.32;;;25.55;33.99
77893;BME280;67087;50.094;14.338;2023-04-24T03:24:11;96831.81;;;25.54;33.93
77893;BME280;67087;50.094;14.338;2023-04-24T03:26:36;96830.73;;;25.50;34.02
77893;BME280;67087;50.094;14.338;2023-04-24T03:29:01;96828.88;;;25.53;34.00
77893;BME280;67087;50.094;14.338;2023-04-24T03:31:26;96828.10;;;25.49;33.98
77893;BME280;67087;50.094;14.338;2023-04-24T03:33:52;96831.80;;;25.53;33.96
77893;BME280;67087;50.094;14.338;2023-04-24T03:36:17;96836.47;;;25.51;34.06
77893;BME280;67087;50.094;14.338;2023-04-24T03:38:42;96839.05;;;25.54;34.06
77893;BME280;67087;50.094;14.338;2023-04-24T03:41:07;96836.36;;;25.55;34.02
77893;BME280;67087;50.094;14.338;2023-04-24T03:43:32;96835.96;;;25.55;34.05
77893;BME280;67087;50.094;14.338;2023-04-24T03:45:57;96836.47;;;25.55;34.02
77893;BME280;67087;50.094;14.338;2023-04-24T03:48:22;96839.81;;;25.49;34.16
77893;BME280;67087;50.094;14.338;2023-04-24T03:50:48;96839.30;;;25.32;34.14
77893;BME280;67087;50.094;14.338;2023-04-24T03:53:13;96838.83;;;25.59;34.14
77893;BME280;67087;50.094;14.338;2023-04-24T03:55:38;96842.47;;;25.34;34.18
77893;BME280;67087;50.094;14.338;2023-04-24T03:58:04;96840.71;;;25.23;33.94
77893;BME280;67087;50.094;14.338;2023-04-24T04:00:29;96840.37;;;25.67;34.01
77893;BME280;67087;50.094;14.338;2023-04-24T04:02:54;96842.55;;;25.66;33.99
77893;BME280;67087;50.094;14.338;2023-04-24T04:05:19;96844.16;;;25.52;34.14
77893;BME280;67087;50.094;14.338;2023-04-24T04:07:44;96844.96;;;25.12;34.17
77893;BME280;67087;50.094;14.338;2023-04-24T04:10:10;96846.94;;;25.61;34.10
77893;BME280;67087;50.094;14.338;2023-04-24T04:12:34;96848.55;;;25.58;34.14
77893;BME280;67087;50.094;14.338;2023-04-24T04:15:00;96850.88;;;25.45;34.08
77893;BME280;67087;50.094;14.338;2023-04-24T04:17:25;96848.31;;;25.68;34.40
77893;BME280;67087;50.094;14.338;2023-04-24T04:19:50;96850.48;;;25.79;34.38
77893;BME280;67087;50.094;14.338;2023-04-24T04:22:15;96851.85;;;25.99;33.55
77893;BME280;67087;50.094;14.338;2023-04-24T04:24:40;96853.15;;;25.89;35.26
77893;BME280;67087;50.094;14.338;2023-04-24T04:27:05;96859.13;;;25.76;34.88
77893;BME280;67087;50.094;14.338;2023-04-24T04:29:31;96862.31;;;25.90;34.40
77893;BME280;67087;50.094;14.338;2023-04-24T04:31:56;96865.31;;;25.72;34.75
77893;BME280;67087;50.094;14.338;2023-04-24T04:34:21;96868.56;;;25.76;35.24
77893;BME280;67087;50.094;14.338;2023-04-24T04:36:46;96871.78;;;25.83;35.06
77893;BME280;67087;50.094;14.338;2023-04-24T04:39:11;96872.51;;;25.96;34.65
77893;BME280;67087;50.094;14.338;2023-04-24T04:41:36;96875.22;;;25.99;34.84
77893;BME280;67087;50.094;14.338;2023-04-24T04:44:01;96873.50;;;26.29;33.51
77893;BME280;67087;50.094;14.338;2023-04-24T04:46:26;96875.70;;;26.34;33.97
77893;BME280;67087;50.094;14.338;2023-04-24T04:48:52;96880.36;;;25.77;34.40
77893;BME280;67087;50.094;14.338;2023-04-24T04:51:17;96879.63;;;25.86;34.33
77893;BME280;67087;50.094;14.338;2023-04-24T04:53:42;96886.44;;;26.91;33.19
77893;BME280;67087;50.094;14.338;2023-04-24T04:56:07;96886.89;;;26.29;33.73
77893;BME280;67087;50.094;14.338;2023-04-24T04:58:32;96890.55;;;26.35;33.73
77893;BME280;67087;50.094;14.338;2023-04-24T05:00:57;96893.61;;;26.37;33.60
77893;BME280;67087;50.094;14.338;2023-04-24T05:03:22;96896.11;;;26.37;33.44
77893;BME280;67087;50.094;14.338;2023-04-24T05:05:47;96901.18;;;26.14;33.46
77893;BME280;67087;50.094;14.338;2023-04-24T05:08:12;96903.86;;;26.05;33.75
77893;BME280;67087;50.094;14.338;2023-04-24T05:10:38;96902.52;;;26.16;33.56
77893;BME280;67087;50.094;14.338;2023-04-24T05:13:03;96906.76;;;26.49;33.78
77893;BME280;67087;50.094;14.338;2023-04-24T05:15:28;96906.77;;;26.59;33.72
77893;BME280;67087;50.094;14.338;2023-04-24T05:17:53;96909.84;;;26.31;33.62
77893;BME280;67087;50.094;14.338;2023-04-24T05:20:18;96911.29;;;26.32;34.00
77893;BME280;67087;50.094;14.338;2023-04-24T05:22:43;96910.35;;;26.61;33.65
77893;BME280;67087;50.094;14.338;2023-04-24T05:25:09;96914.79;;;26.33;33.76
77893;BME280;67087;50.094;14.338;2023-04-24T05:27:34;96913.10;;;26.35;33.80
77893;BME280;67087;50.094;14.338;2023-04-24T05:29:59;96915.11;;;26.27;34.06
77893;BME280;67087;50.094;14.338;2023-04-24T05:32:24;96908.77;;;26.01;35.06
77893;BME280;67087;50.094;14.338;2023-04-24T05:34:49;96902.13;;;26.43;34.31
77893;BME280;67087;50.094;14.338;2023-04-24T05:37:14;96906.44;;;26.42;33.86
77893;BME280;67087;50.094;14.338;2023-04-24T05:39:39;96907.31;;;26.81;33.77
77893;BME280;67087;50.094;14.338;2023-04-24T05:42:04;96910.03;;;26.16;34.65
77893;BME280;67087;50.094;14.338;2023-04-24T05:44:29;96908.86;;;26.04;34.81
77893;BME280;67087;50.094;14.338;2023-04-24T05:46:54;96913.87;;;25.98;34.75
77893;BME280;67087;50.094;14.338;2023-04-24T05:49:20;96917.95;;;26.04;34.67
77893;BME280;67087;50.094;14.338;2023-04-24T05:51:45;96919.43;;;25.43;34.76
77893;BME280;67087;50.094;14.338;2023-04-24T05:54:10;96921.63;;;25.98;34.59
77893;BME280;67087;50.094;14.338;2023-04-24T05:56:35;96924.28;;;26.20;34.58
77893;BME280;67087;50.094;14.338;2023-04-24T05:59:00;96926.67;;;25.86;34.70
77893;BME280;67087;50.094;14.338;2023-04-24T06:01:25;96931.37;;;26.09;34.66
77893;BME280;67087;50.094;14.338;2023-04-24T06:03:51;96932.27;;;25.87;34.61
77893;BME280;67087;50.094;14.338;2023-04-24T06:06:16;96930.52;;;25.95;34.80
77893;BME280;67087;50.094;14.338;2023-04-24T06:08:42;96934.19;;;25.88;34.88
77893;BME280;67087;50.094;14.338;2023-04-24T06:11:06;96940.25;;;25.68;35.05
77893;BME280;67087;50.094;14.338;2023-04-24T06:13:31;96943.01;;;26.16;34.81
77893;BME280;67087;50.094;14.338;2023-04-24T06:15:57;96942.94;;;25.74;35.03
77893;BME280;67087;50.094;14.338;2023-04-24T06:18:22;96941.82;;;25.60;35.10
77893;BME280;67087;50.094;14.338;2023-04-24T06:20:47;96942.78;;;25.55;35.00
77893;BME280;67087;50.094;14.338;2023-04-24T06:23:12;96944.05;;;25.88;35.13
77893;BME280;67087;50.094;14.338;2023-04-24T06:25:37;96949.50;;;25.80;34.83
77893;BME280;67087;50.094;14.338;2023-04-24T06:28:02;96951.81;;;25.59;34.76
77893;BME280;67087;50.094;14.338;2023-04-24T06:30:27;96953.47;;;25.73;34.90
77893;BME280;67087;50.094;14.338;2023-04-24T06:32:53;96953.61;;;25.48;34.80
77893;BME280;67087;50.094;14.338;2023-04-24T06:35:18;96953.45;;;26.12;34.57
77893;BME280;67087;50.094;14.338;2023-04-24T06:37:44;96951.52;;;25.34;34.98
77893;BME280;67087;50.094;14.338;2023-04-24T06:40:09;96955.85;;;25.82;34.63
77893;BME280;67087;50.094;14.338;2023-04-24T06:42:34;96958.14;;;25.97;34.70
77893;BME280;67087;50.094;14.338;2023-04-24T06:44:59;96958.93;;;25.61;34.86
77893;BME280;67087;50.094;14.338;2023-04-24T06:47:24;96961.89;;;25.96;34.67
77893;BME280;67087;50.094;14.338;2023-04-24T06:49:49;96958.59;;;25.77;34.94
77893;BME280;67087;50.094;14.338;2023-04-24T06:52:14;96961.42;;;25.61;34.77
77893;BME280;67087;50.094;14.338;2023-04-24T06:54:41;96961.02;;;25.56;34.89
77893;BME280;67087;50.094;14.338;2023-04-24T06:57:04;96963.84;;;25.67;34.96
77893;BME280;67087;50.094;14.338;2023-04-24T06:59:30;96967.96;;;25.67;34.93
77893;BME280;67087;50.094;14.338;2023-04-24T07:01:55;96964.44;;;25.51;34.87
77893;BME280;67087;50.094;14.338;2023-04-24T07:04:20;96966.57;;;25.82;34.66
77893;BME280;67087;50.094;14.338;2023-04-24T07:06:45;96968.96;;;25.20;34.88
77893;BME280;67087;50.094;14.338;2023-04-24T07:09:10;96971.32;;;25.49;34.79
77893;BME280;67087;50.094;14.338;2023-04-24T07:11:35;96978.31;;;25.49;34.79
77893;BME280;67087;50.094;14.338;2023-04-24T07:14:00;96980.14;;;25.47;34.78
77893;BME280;67087;50.094;14.338;2023-04-24T07:16:25;96979.36;;;25.78;34.66
77893;BME280;67087;50.094;14.338;2023-04-24T07:18:52;96981.23;;;25.63;34.55
77893;BME280;67087;50.094;14.338;2023-04-24T07:21:16;96982.63;;;25.66;34.84
77893;BME280;67087;50.094;14.338;2023-04-24T07:23:41;96983.68;;;25.66;34.76
77893;BME280;67087;50.094;14.338;2023-04-24T07:26:06;96986.16;;;25.40;34.76
77893;BME280;67087;50.094;14.338;2023-04-24T07:28:31;96986.18;;;25.65;34.78
77893;BME280;67087;50.094;14.338;2023-04-24T07:30:56;96985.12;;;25.49;34.62
77893;BME280;67087;50.094;14.338;2023-04-24T07:33:21;96985.53;;;25.75;34.56
77893;BME280;67087;50.094;14.338;2023-04-24T07:35:46;96984.49;;;25.45;34.61
77893;BME280;67087;50.094;14.338;2023-04-24T07:38:12;96984.26;;;25.77;34.55
77893;BME280;67087;50.094;14.338;2023-04-24T07:40:37;96986.75;;;25.63;34.68
77893;BME280;67087;50.094;14.338;2023-04-24T07:43:02;96985.10;;;25.40;34.62
77893;BME280;67087;50.094;14.338;2023-04-24T07:45:27;96992.45;;;25.56;34.76
77893;BME280;67087;50.094;14.338;2023-04-24T07:47:52;96993.27;;;25.38;34.68
77893;BME280;67087;50.094;14.338;2023-04-24T07:50:17;96997.11;;;25.60;34.67
77893;BME280;67087;50.094;14.338;2023-04-24T07:52:43;96996.79;;;25.15;34.60
77893;BME280;67087;50.094;14.338;2023-04-24T07:55:07;96998.53;;;25.61;34.66
77893;BME280;67087;50.094;14.338;2023-04-24T07:57:33;96997.81;;;25.61;34.62
77893;BME280;67087;50.094;14.338;2023-04-24T07:59:58;97005.25;;;25.23;34.80
77893;BME280;67087;50.094;14.338;2023-04-24T08:02:23;97001.16;;;25.42;34.87
77893;BME280;67087;50.094;14.338;2023-04-24T08:04:48;96997.04;;;25.19;34.82
77893;BME280;67087;50.094;14.338;2023-04-24T08:07:13;96992.11;;;25.26;34.70
77893;BME280;67087;50.094;14.338;2023-04-24T08:09:38;96993.09;;;25.43;34.81
77893;BME280;67087;50.094;14.338;2023-04-24T08:12:04;96991.29;;;25.23;34.74
77893;BME280;67087;50.094;14.338;2023-04-24T08:14:29;96989.88;;;25.44;34.78
77893;BME280;67087;50.094;14.338;2023-04-24T08:16:54;96992.67;;;25.22;34.74
77893;BME280;67087;50.094;14.338;2023-04-24T08:19:19;96993.60;;;25.23;34.71
77893;BME280;67087;50.094;14.338;2023-04-24T08:21:45;96992.77;;;25.04;34.65
77893;BME280;67087;50.094;14.338;2023-04-24T08:24:09;96991.23;;;25.35;34.50
77893;BME280;67087;50.094;14.338;2023-04-24T08:26:34;96989.36;;;25.62;34.46
77893;BME280;67087;50.094;14.338;2023-04-24T08:28:59;96985.89;;;25.51;34.55
77893;BME280;67087;50.094;14.338;2023-04-24T08:31:24;96986.63;;;25.20;34.71
77893;BME280;67087;50.094;14.338;2023-04-24T08:33:50;96990.53;;;25.44;34.71
77893;BME280;67087;50.094;14.338;2023-04-24T08:36:15;96989.15;;;25.28;34.57
77893;BME280;67087;50.094;14.338;2023-04-24T08:38:40;96993.59;;;25.43;34.72
77893;BME280;67087;50.094;14.338;2023-04-24T08:41:05;96989.78;;;25.55;34.52
77893;BME280;67087;50.094;14.338;2023-04-24T08:43:32;96992.58;;;25.40;34.71
77893;BME280;67087;50.094;14.338;2023-04-24T08:45:56;96995.33;;;25.46;34.61
77893;BME280;67087;50.094;14.338;2023-04-24T08:48:22;96998.84;;;25.20;34.61
77893;BME280;67087;50.094;14.338;2023-04-24T08:50:46;96999.97;;;25.11;34.39
77893;BME280;67087;50.094;14.338;2023-04-24T08:53:11;96999.73;;;25.50;34.53
77893;BME280;67087;50.094;14.338;2023-04-24T08:55:37;97000.26;;;25.41;34.63
77893;BME280;67087;50.094;14.338;2023-04-24T08:58:02;97007.61;;;25.38;34.69
77893;BME280;67087;50.094;14.338;2023-04-24T09:00:27;97014.27;;;25.52;34.49
77893;BME280;67087;50.094;14.338;2023-04-24T09:02:53;97010.03;;;25.16;34.62
77893;BME280;67087;50.094;14.338;2023-04-24T09:05:17;97008.84;;;25.22;34.57
77893;BME280;67087;50.094;14.338;2023-04-24T09:07:44;97007.33;;;25.43;34.59
77893;BME280;67087;50.094;14.338;2023-04-24T09:10:07;97005.90;;;25.47;34.53
77893;BME280;67087;50.094;14.338;2023-04-24T09:12:32;97002.76;;;25.48;34.48
77893;BME280;67087;50.094;14.338;2023-04-24T09:14:58;97005.18;;;25.29;34.74
77893;BME280;67087;50.094;14.338;2023-04-24T09:17:22;97002.42;;;25.41;34.57
77893;BME280;67087;50.094;14.338;2023-04-24T09:19:47;97002.50;;;25.46;34.55
77893;BME280;67087;50.094;14.338;2023-04-24T09:22:12;97000.91;;;25.43;34.56
77893;BME280;67087;50.094;14.338;2023-04-24T09:24:38;96998.85;;;25.55;34.44
77893;BME280;67087;50.094;14.338;2023-04-24T09:27:03;96998.79;;;25.27;34.76
77893;BME280;67087;50.094;14.338;2023-04-24T09:29:28;97000.70;;;25.43;34.56
77893;BME280;67087;50.094;14.338;2023-04-24T09:31:53;96999.20;;;25.44;34.60
77893;BME280;67087;50.094;14.338;2023-04-24T09:34:22;96996.55;;;25.33;34.72
77893;BME280;67087;50.094;14.338;2023-04-24T09:36:44;96996.89;;;25.20;34.56
77893;BME280;67087;50.094;14.338;2023-04-24T09:39:09;96995.26;;;25.47;34.47
77893;BME280;67087;50.094;14.338;2023-04-24T09:41:34;96991.79;;;25.06;34.72
77893;BME280;67087;50.094;14.338;2023-04-24T09:46:29;96988.82;;;25.46;34.49
77893;BME280;67087;50.094;14.338;2023-04-24T09:48:49;96988.06;;;25.24;34.48
77893;BME280;67087;50.094;14.338;2023-04-24T09:51:14;96989.32;;;25.37;34.62
77893;BME280;67087;50.094;14.338;2023-04-24T09:53:39;96989.55;;;25.31;34.71
77893;BME280;67087;50.094;14.338;2023-04-24T09:56:07;96985.07;;;25.34;34.64
77893;BME280;67087;50.094;14.338;2023-04-24T09:58:29;96983.90;;;25.36;34.61
77893;BME280;67087;50.094;14.338;2023-04-24T10:00:56;96986.48;;;25.33;34.60
77893;BME280;67087;50.094;14.338;2023-04-24T10:03:20;96980.44;;;25.43;34.48
77893;BME280;67087;50.094;14.338;2023-04-24T10:05:46;96982.28;;;24.83;34.63
77893;BME280;67087;50.094;14.338;2023-04-24T10:08:11;96974.66;;;25.26;34.72
77893;BME280;67087;50.094;14.338;2023-04-24T10:10:38;96973.83;;;25.41;34.44
77893;BME280;67087;50.094;14.338;2023-04-24T10:13:00;96974.71;;;25.47;34.36
77893;BME280;67087;50.094;14.338;2023-04-24T10:15:26;96975.75;;;25.35;34.55
77893;BME280;67087;50.094;14.338;2023-04-24T10:17:51;96972.37;;;25.41;34.51
77893;BME280;67087;50.094;14.338;2023-04-24T10:20:16;96967.93;;;25.43;34.43
77893;BME280;67087;50.094;14.338;2023-04-24T10:22:41;96966.30;;;25.38;34.50
77893;BME280;67087;50.094;14.338;2023-04-24T10:25:06;96967.58;;;25.28;34.60
77893;BME280;67087;50.094;14.338;2023-04-24T10:27:32;96967.40;;;25.43;34.46
77893;BME280;67087;50.094;14.338;2023-04-24T10:29:56;96970.98;;;25.27;34.32
77893;BME280;67087;50.094;14.338;2023-04-24T10:32:21;96973.32;;;25.20;34.34
77893;BME280;67087;50.094;14.338;2023-04-24T10:34:46;96968.59;;;25.13;34.52
77893;BME280;67087;50.094;14.338;2023-04-24T10:37:12;96969.60;;;25.84;34.45
77893;BME280;67087;50.094;14.338;2023-04-24T10:39:37;96962.79;;;25.34;34.53
77893;BME280;67087;50.094;14.338;2023-04-24T10:42:02;96964.89;;;25.38;34.43
77893;BME280;67087;50.094;14.338;2023-04-24T10:44:35;96966.42;;;25.08;34.50
77893;BME280;67087;50.094;14.338;2023-04-24T10:46:54;96967.00;;;25.46;34.37
77893;BME280;67087;50.094;14.338;2023-04-24T10:49:27;96963.11;;;25.51;34.32
77893;BME280;67087;50.094;14.338;2023-04-24T10:51:46;96958.70;;;25.19;34.34
77893;BME280;67087;50.094;14.338;2023-04-24T10:56:33;96953.11;;;25.47;34.38
77893;BME280;67087;50.094;14.338;2023-04-24T10:58:58;96950.36;;;25.28;34.24
77893;BME280;67087;50.094;14.338;2023-04-24T11:01:24;96952.99;;;25.46;34.33
77893;BME280;67087;50.094;14.338;2023-04-24T11:03:53;96951.38;;;25.49;34.37
77893;BME280;67087;50.094;14.338;2023-04-24T11:06:13;96951.16;;;25.48;34.09
77893;BME280;67087;50.094;14.338;2023-04-24T11:08:40;96951.55;;;25.63;34.99
77893;BME280;67087;50.094;14.338;2023-04-24T11:11:08;96944.76;;;25.82;34.46
77893;BME280;67087;50.094;14.338;2023-04-24T11:18:19;96943.66;;;25.97;34.14
77893;BME280;67087;50.094;14.338;2023-04-24T11:20:44;96940.97;;;25.54;35.83
77893;BME280;67087;50.094;14.338;2023-04-24T11:23:12;96945.32;;;26.07;35.33
77893;BME280;67087;50.094;14.338;2023-04-24T11:25:35;96950.46;;;26.73;33.81
77893;BME280;67087;50.094;14.338;2023-04-24T11:28:05;96955.55;;;25.60;35.48
77893;BME280;67087;50.094;14.338;2023-04-24T11:30:29;96949.28;;;25.92;34.53
77893;BME280;67087;50.094;14.338;2023-04-24T11:32:51;96955.97;;;25.68;35.21
77893;BME280;67087;50.094;14.338;2023-04-24T11:35:16;96959.07;;;26.10;34.69
77893;BME280;67087;50.094;14.338;2023-04-24T11:37:41;96952.56;;;26.19;34.56
77893;BME280;67087;50.094;14.338;2023-04-24T11:40:07;96952.23;;;26.14;35.12
77893;BME280;67087;50.094;14.338;2023-04-24T11:42:34;96954.41;;;26.17;34.83
77893;BME280;67087;50.094;14.338;2023-04-24T11:44:55;96954.82;;;26.07;34.18
77893;BME280;67087;50.094;14.338;2023-04-24T11:49:45;96950.96;;;26.03;34.95
77893;BME280;67087;50.094;14.338;2023-04-24T11:52:10;96951.53;;;26.14;34.93
77893;BME280;67087;50.094;14.338;2023-04-24T11:54:35;96952.12;;;25.82;35.61
77893;BME280;67087;50.094;14.338;2023-04-24T11:57:04;96955.85;;;25.88;34.77
77893;BME280;67087;50.094;14.338;2023-04-24T11:59:26;96956.58;;;26.20;34.66
77893;BME280;67087;50.094;14.338;2023-04-24T12:01:51;96974.59;;;26.03;34.48
77893;BME280;67087;50.094;14.338;2023-04-24T12:04:17;96979.98;;;26.24;34.54
77893;BME280;67087;50.094;14.338;2023-04-24T12:09:06;96973.15;;;26.09;34.88
77893;BME280;67087;50.094;14.338;2023-04-24T12:11:31;96980.99;;;25.98;34.63
77893;BME280;67087;50.094;14.338;2023-04-24T12:13:56;96986.21;;;25.98;34.46
77893;BME280;67087;50.094;14.338;2023-04-24T12:16:22;96983.58;;;26.27;34.64
77893;BME280;67087;50.094;14.338;2023-04-24T12:18:47;96980.61;;;26.45;34.37
77893;BME280;67087;50.094;14.338;2023-04-24T12:21:17;96982.80;;;26.37;34.73
77893;BME280;67087;50.094;14.338;2023-04-24T12:23:37;96982.92;;;26.66;34.56
77893;BME280;67087;50.094;14.338;2023-04-24T12:26:03;96983.08;;;26.17;35.36
77893;BME280;67087;50.094;14.338;2023-04-24T12:28:36;96977.04;;;26.74;35.34
77893;BME280;67087;50.094;14.338;2023-04-24T12:30:52;96975.34;;;26.10;35.87
77893;BME280;67087;50.094;14.338;2023-04-24T12:33:18;96973.98;;;26.33;35.93
77893;BME280;67087;50.094;14.338;2023-04-24T12:35:42;96970.12;;;26.52;35.26
77893;BME280;67087;50.094;14.338;2023-04-24T12:38:08;96967.34;;;26.08;36.58
77893;BME280;67087;50.094;14.338;2023-04-24T12:40:33;96965.84;;;26.12;36.58
77893;BME280;67087;50.094;14.338;2023-04-24T12:42:58;96966.45;;;26.23;36.62
77893;BME280;67087;50.094;14.338;2023-04-24T12:45:23;96964.52;;;26.38;35.97
77893;BME280;67087;50.094;14.338;2023-04-24T12:47:48;96963.65;;;26.56;35.91
77893;BME280;67087;50.094;14.338;2023-04-24T12:50:15;96962.63;;;26.10;36.98
77893;BME280;67087;50.094;14.338;2023-04-24T12:52:39;96966.00;;;26.75;35.98